Time;durP1;ratioP1;P1;durP2;ratioP2;P2;SDS_P1;SDS_P2;PMS_P1;PMS_P2;Temp;Humidity;BMP_temperature;BMP_pressure;BME280_temperature;BME280_humidity;BME280_pressure;Samples;Min_cycle;Max_cycle;Signal;HPM_P1;HPM_P2
2022/07/20 00:00:47;;;;;;;;;;;27.50;35.10;;;;;;5035767;28;19920;-67
2022/07/20 00:03:12;;;;;;;;;;;27.50;35.10;;;;;;5035737;28;19956;-64
2022/07/20 00:05:39;;;;;;;;;;;27.50;35.10;;;;;;5035780;28;19909;-62
2022/07/20 00:08:04;;;;;;;;;;;27.40;35.30;;;;;;5035724;28;19917;-64
2022/07/20 00:13:14;;;;;;;;;;;27.30;35.70;;;;;;5035538;28;19932;-65
2022/07/20 00:15:40;;;;;;;;;;;27.40;35.70;;;;;;5035759;28;20332;-62
2022/07/20 00:18:06;;;;;;;;;;;27.40;35.60;;;;;;5035728;28;20230;-63
2022/07/20 00:20:31;;;;;;;;;;;27.40;35.50;;;;;;5035511;28;20011;-62
2022/07/20 00:22:58;;;;;;;;;;;27.40;35.50;;;;;;5035397;28;20292;-62
2022/07/20 00:25:24;;;;;;;;;;;27.50;35.40;;;;;;5035205;28;19909;-62
2022/07/20 00:27:49;;;;;;;;;;;27.40;35.50;;;;;;5035200;28;19909;-63
2022/07/20 00:30:15;;;;;;;;;;;27.30;35.70;;;;;;5035224;28;19963;-63
2022/07/20 00:32:42;;;;;;;;;;;27.20;35.90;;;;;;5035273;28;19929;-65
2022/07/20 00:35:09;;;;;;;;;;;27.30;35.60;;;;;;5034959;28;19963;-62
2022/07/20 00:37:34;;;;;;;;;;;27.40;35.70;;;;;;5035117;28;20003;-66
2022/07/20 00:40:00;;;;;;;;;;;27.30;35.60;;;;;;5035124;28;19991;-65
2022/07/20 00:42:28;;;;;;;;;;;27.30;35.70;;;;;;5035358;28;19917;-65
2022/07/20 00:44:54;;;;;;;;;;;27.30;35.50;;;;;;5035006;28;19960;-63
2022/07/20 00:47:19;;;;;;;;;;;27.20;35.50;;;;;;5034854;28;19956;-63
2022/07/20 00:49:45;;;;;;;;;;;27.30;35.80;;;;;;5035361;28;19909;-62
2022/07/20 00:52:10;;;;;;;;;;;27.30;35.50;;;;;;5034907;28;19913;-62
2022/07/20 00:54:36;;;;;;;;;;;27.20;35.50;;;;;;5034808;28;19975;-63
2022/07/20 00:57:02;;;;;;;;;;;27.30;35.70;;;;;;5034717;28;19913;-63
2022/07/20 00:59:28;;;;;;;;;;;27.20;35.70;;;;;;5034977;28;20257;-63
2022/07/20 01:01:54;;;;;;;;;;;27.20;35.80;;;;;;5034857;28;20015;-72
2022/07/20 01:04:19;;;;;;;;;;;27.20;35.80;;;;;;5034603;28;19913;-62
2022/07/20 01:06:45;;;;;;;;;;;27.20;35.90;;;;;;5034094;28;19909;-62
2022/07/20 01:09:10;;;;;;;;;;;27.10;35.90;;;;;;5034612;28;19959;-62
2022/07/20 01:11:36;;;;;;;;;;;27.10;36.10;;;;;;5034548;28;19979;-63
2022/07/20 01:14:02;;;;;;;;;;;27.10;36.20;;;;;;5034592;28;19964;-63
2022/07/20 01:16:28;;;;;;;;;;;27.00;36.40;;;;;;5034527;28;20368;-63
2022/07/20 01:18:53;;;;;;;;;;;26.80;36.60;;;;;;5034446;28;19913;-68
2022/07/20 01:21:19;;;;;;;;;;;26.60;36.80;;;;;;5034513;28;19916;-69
2022/07/20 01:23:44;;;;;;;;;;;26.70;37.20;;;;;;5034276;28;19913;-66
2022/07/20 01:26:10;;;;;;;;;;;26.60;37.20;;;;;;5034192;28;19913;-66
2022/07/20 01:28:35;;;;;;;;;;;26.70;37.00;;;;;;5034433;28;20020;-63
2022/07/20 01:31:01;;;;;;;;;;;26.80;37.10;;;;;;5034260;28;19948;-65
2022/07/20 01:33:27;;;;;;;;;;;26.80;36.90;;;;;;5034074;28;19928;-68
2022/07/20 01:35:52;;;;;;;;;;;26.80;36.80;;;;;;5034221;28;19910;-62
2022/07/20 01:38:18;;;;;;;;;;;26.80;36.70;;;;;;5034062;28;19913;-63
2022/07/20 01:40:43;;;;;;;;;;;27.00;36.40;;;;;;5034069;28;19913;-64
2022/07/20 01:43:09;;;;;;;;;;;26.90;36.40;;;;;;5033597;28;19917;-63
2022/07/20 01:45:34;;;;;;;;;;;26.90;36.40;;;;;;5033935;28;19913;-62
2022/07/20 01:48:00;;;;;;;;;;;26.80;36.50;;;;;;5034027;28;19913;-62
2022/07/20 01:50:26;;;;;;;;;;;26.80;36.60;;;;;;5033727;28;20288;-64
2022/07/20 01:52:51;;;;;;;;;;;26.80;36.30;;;;;;5033791;28;20012;-65
2022/07/20 01:55:17;;;;;;;;;;;26.90;36.20;;;;;;5033690;28;19913;-63
2022/07/20 01:57:42;;;;;;;;;;;26.90;36.20;;;;;;5033652;28;19936;-62
2022/07/20 02:00:09;;;;;;;;;;;26.80;36.40;;;;;;5033613;28;19960;-62
2022/07/20 02:02:34;;;;;;;;;;;26.90;36.40;;;;;;5033515;28;20385;-64
2022/07/20 02:05:00;;;;;;;;;;;26.90;36.30;;;;;;5033586;28;19909;-66
2022/07/20 02:07:26;;;;;;;;;;;26.80;36.30;;;;;;5033481;28;19910;-64
2022/07/20 02:09:51;;;;;;;;;;;26.80;36.30;;;;;;5033427;28;20019;-64
2022/07/20 02:12:19;;;;;;;;;;;26.80;36.30;;;;;;5033518;28;19916;-65
2022/07/20 02:14:45;;;;;;;;;;;26.80;36.30;;;;;;5033337;28;20020;-65
2022/07/20 02:17:10;;;;;;;;;;;26.80;36.30;;;;;;5032572;28;20008;-62
2022/07/20 02:19:36;;;;;;;;;;;26.80;36.50;;;;;;5033221;28;19916;-63
2022/07/20 02:22:01;;;;;;;;;;;26.80;36.50;;;;;;5033284;28;20332;-63
2022/07/20 02:24:27;;;;;;;;;;;26.70;36.70;;;;;;5033042;28;20384;-63
2022/07/20 02:26:53;;;;;;;;;;;26.60;36.80;;;;;;5033349;28;19913;-65
2022/07/20 02:29:18;;;;;;;;;;;26.60;36.90;;;;;;5033124;28;20421;-62
2022/07/20 02:31:44;;;;;;;;;;;26.60;36.80;;;;;;5033097;28;20364;-64
2022/07/20 02:34:09;;;;;;;;;;;26.50;37.10;;;;;;5032958;28;19956;-62
2022/07/20 02:36:35;;;;;;;;;;;26.30;37.50;;;;;;5032861;28;19971;-63
2022/07/20 02:39:00;;;;;;;;;;;26.20;37.80;;;;;;5032910;28;19963;-65
2022/07/20 02:41:26;;;;;;;;;;;26.10;38.10;;;;;;5032855;28;19912;-63
2022/07/20 02:43:52;;;;;;;;;;;26.20;37.80;;;;;;5032526;28;20015;-66
2022/07/20 02:46:17;;;;;;;;;;;26.20;38.00;;;;;;5032738;28;19924;-63
2022/07/20 02:48:43;;;;;;;;;;;26.10;37.80;;;;;;5032888;28;19909;-63
2022/07/20 02:51:08;;;;;;;;;;;26.20;38.00;;;;;;5032797;28;19913;-64
2022/07/20 02:53:34;;;;;;;;;;;25.90;38.40;;;;;;5032460;28;19924;-63
2022/07/20 02:55:59;;;;;;;;;;;25.80;38.40;;;;;;5032873;28;20262;-63
2022/07/20 02:58:25;;;;;;;;;;;25.60;38.80;;;;;;5032832;28;19959;-65
2022/07/20 03:00:51;;;;;;;;;;;25.60;38.90;;;;;;5032529;28;20335;-62
2022/07/20 03:03:16;;;;;;;;;;;25.50;39.00;;;;;;5031153;28;19913;-62
2022/07/20 03:05:42;;;;;;;;;;;25.40;39.30;;;;;;5032546;28;19919;-63
2022/07/20 03:08:08;;;;;;;;;;;25.20;39.60;;;;;;5032440;28;19948;-63
2022/07/20 03:10:33;;;;;;;;;;;25.30;39.80;;;;;;5032497;28;19909;-62
2022/07/20 03:12:59;;;;;;;;;;;25.10;39.70;;;;;;5032185;28;19921;-63
2022/07/20 03:15:25;;;;;;;;;;;25.10;40.20;;;;;;5032331;28;20279;-63
2022/07/20 03:17:51;;;;;;;;;;;25.20;39.90;;;;;;5032238;28;20340;-63
2022/07/20 03:20:19;;;;;;;;;;;25.20;39.90;;;;;;5032312;28;19916;-62
2022/07/20 03:22:44;;;;;;;;;;;25.20;39.70;;;;;;5032115;28;19913;-63
2022/07/20 03:25:10;;;;;;;;;;;25.10;39.70;;;;;;5032450;28;19909;-62
2022/07/20 03:27:36;;;;;;;;;;;25.20;39.60;;;;;;5030999;28;19913;-65
2022/07/20 03:30:02;;;;;;;;;;;25.30;39.60;;;;;;5031930;28;19918;-63
2022/07/20 03:32:28;;;;;;;;;;;25.30;39.40;;;;;;5032239;28;20028;-63
2022/07/20 03:34:53;;;;;;;;;;;25.40;39.40;;;;;;5032017;28;20412;-63
2022/07/20 03:37:19;;;;;;;;;;;25.50;39.20;;;;;;5032270;28;19958;-65
2022/07/20 03:39:44;;;;;;;;;;;25.60;39.10;;;;;;5031973;28;19913;-65
2022/07/20 03:42:10;;;;;;;;;;;25.40;39.20;;;;;;5032078;28;20285;-63
2022/07/20 03:44:35;;;;;;;;;;;25.40;39.30;;;;;;5030541;28;20365;-63
2022/07/20 03:47:01;;;;;;;;;;;25.50;39.30;;;;;;5031969;28;19913;-64
2022/07/20 03:49:26;;;;;;;;;;;25.50;39.10;;;;;;5031946;28;19924;-64
2022/07/20 03:51:52;;;;;;;;;;;25.50;39.10;;;;;;5032120;28;19913;-64
2022/07/20 03:54:17;;;;;;;;;;;25.60;39.30;;;;;;5031783;28;20358;-64
2022/07/20 03:56:43;;;;;;;;;;;25.60;39.10;;;;;;5032033;28;20246;-64
2022/07/20 03:59:09;;;;;;;;;;;25.50;39.10;;;;;;5031831;28;20000;-65
2022/07/20 04:01:35;;;;;;;;;;;25.60;39.10;;;;;;5032033;28;19909;-65
2022/07/20 04:04:00;;;;;;;;;;;25.60;38.90;;;;;;5031880;28;19916;-63
2022/07/20 04:06:26;;;;;;;;;;;25.60;39.00;;;;;;5031814;28;19914;-63
2022/07/20 04:08:51;;;;;;;;;;;25.70;39.00;;;;;;5031890;28;19909;-64
2022/07/20 04:11:17;;;;;;;;;;;25.70;38.70;;;;;;5031780;28;19940;-63
2022/07/20 04:13:42;;;;;;;;;;;25.50;39.20;;;;;;5031800;28;20380;-64
2022/07/20 04:16:08;;;;;;;;;;;25.70;39.10;;;;;;5031741;28;20317;-64
2022/07/20 04:18:33;;;;;;;;;;;25.80;39.00;;;;;;5031892;28;20012;-64
2022/07/20 04:20:59;;;;;;;;;;;26.00;38.70;;;;;;5031647;28;20408;-64
2022/07/20 04:23:24;;;;;;;;;;;26.10;38.50;;;;;;5031660;28;20230;-64
2022/07/20 04:25:50;;;;;;;;;;;26.20;38.40;;;;;;5031689;28;19948;-63
2022/07/20 04:28:16;;;;;;;;;;;26.20;38.20;;;;;;5031581;28;19952;-64
2022/07/20 04:30:41;;;;;;;;;;;26.30;38.10;;;;;;5031750;28;19914;-65
2022/07/20 04:33:07;;;;;;;;;;;26.10;38.10;;;;;;5031223;28;19930;-63
2022/07/20 04:35:32;;;;;;;;;;;26.20;38.20;;;;;;5031664;28;20040;-64
2022/07/20 04:37:58;;;;;;;;;;;26.20;38.30;;;;;;5031509;28;19909;-64
2022/07/20 04:40:24;;;;;;;;;;;26.10;38.50;;;;;;5032332;28;19913;-64
2022/07/20 04:42:49;;;;;;;;;;;26.10;38.50;;;;;;5035088;28;20327;-64
2022/07/20 04:45:15;;;;;;;;;;;26.10;38.70;;;;;;5034875;28;19909;-65
2022/07/20 04:47:40;;;;;;;;;;;26.20;38.70;;;;;;5035327;28;19913;-64
2022/07/20 04:50:06;;;;;;;;;;;26.20;38.40;;;;;;5035069;28;19957;-65
2022/07/20 04:52:31;;;;;;;;;;;26.30;38.20;;;;;;5034808;28;19917;-62
2022/07/20 04:54:57;;;;;;;;;;;26.20;38.50;;;;;;5034929;28;19913;-63
2022/07/20 04:57:23;;;;;;;;;;;26.10;38.40;;;;;;5034853;28;19909;-63
2022/07/20 04:59:48;;;;;;;;;;;26.00;38.70;;;;;;5034856;28;19909;-62
2022/07/20 05:02:14;;;;;;;;;;;26.10;39.00;;;;;;5034664;28;20438;-71
2022/07/20 05:04:39;;;;;;;;;;;26.30;39.10;;;;;;5034759;28;19955;-71
2022/07/20 05:07:05;;;;;;;;;;;26.40;38.70;;;;;;5034746;28;20368;-66
2022/07/20 05:09:30;;;;;;;;;;;26.50;38.40;;;;;;5034083;28;20384;-72
2022/07/20 05:11:56;;;;;;;;;;;26.50;38.30;;;;;;5034356;28;19967;-77
2022/07/20 05:14:21;;;;;;;;;;;26.50;38.50;;;;;;5034253;28;19979;-65
2022/07/20 05:16:47;;;;;;;;;;;26.50;38.30;;;;;;5040785;28;19913;-71
2022/07/20 05:19:12;;;;;;;;;;;26.50;38.30;;;;;;5043637;28;20424;-65
2022/07/20 05:21:38;;;;;;;;;;;26.50;38.50;;;;;;5039997;28;19979;-64
2022/07/20 05:24:04;;;;;;;;;;;26.50;38.30;;;;;;5043969;28;19986;-63
2022/07/20 05:26:29;;;;;;;;;;;26.50;39.00;;;;;;5042745;28;19915;-64
2022/07/20 05:28:55;;;;;;;;;;;26.50;38.10;;;;;;5050486;28;19935;-65
2022/07/20 05:31:20;;;;;;;;;;;26.60;38.30;;;;;;5050358;28;20335;-62
2022/07/20 05:33:46;;;;;;;;;;;26.60;38.10;;;;;;5049981;28;19943;-65
2022/07/20 05:36:12;;;;;;;;;;;26.60;38.00;;;;;;5050038;28;19917;-66
2022/07/20 05:38:37;;;;;;;;;;;26.60;37.90;;;;;;5050246;28;19908;-65
2022/07/20 05:41:03;;;;;;;;;;;26.60;37.70;;;;;;5050494;28;19909;-64
2022/07/20 05:43:29;;;;;;;;;;;26.60;38.00;;;;;;5046580;28;20330;-66
2022/07/20 05:45:54;;;;;;;;;;;26.60;38.00;;;;;;5044812;28;19917;-66
2022/07/20 05:48:20;;;;;;;;;;;26.50;38.10;;;;;;5044133;28;19909;-64
2022/07/20 05:50:46;;;;;;;;;;;26.80;38.30;;;;;;5045438;28;19913;-64
2022/07/20 05:53:12;;;;;;;;;;;27.30;37.50;;;;;;5045835;28;19928;-63
2022/07/20 05:55:38;;;;;;;;;;;27.80;36.60;;;;;;5047993;28;20008;-69
2022/07/20 05:58:04;;;;;;;;;;;28.40;36.20;;;;;;5049777;28;19916;-68
2022/07/20 06:00:30;;;;;;;;;;;28.90;35.50;;;;;;5049589;28;19909;-65
2022/07/20 06:02:55;;;;;;;;;;;29.30;33.60;;;;;;5049631;28;19912;-69
2022/07/20 06:05:21;;;;;;;;;;;29.60;33.30;;;;;;5049443;28;20269;-62
2022/07/20 06:07:46;;;;;;;;;;;29.90;32.40;;;;;;5049745;28;20020;-71
2022/07/20 06:10:12;;;;;;;;;;;29.90;32.30;;;;;;5046652;28;20029;-64
2022/07/20 06:12:37;;;;;;;;;;;30.20;32.20;;;;;;5046816;28;20425;-64
2022/07/20 06:15:03;;;;;;;;;;;30.30;32.00;;;;;;5049254;28;20315;-62
2022/07/20 06:17:36;;;;;;;;;;;30.60;31.90;;;;;;5049272;28;19919;-62
2022/07/20 06:20:05;;;;;;;;;;;30.80;31.30;;;;;;5046403;28;19913;-68
2022/07/20 06:22:31;;;;;;;;;;;31.10;30.80;;;;;;5046056;28;19909;-67
2022/07/20 06:24:57;;;;;;;;;;;31.30;30.40;;;;;;5040569;28;20000;-66
2022/07/20 06:27:23;;;;;;;;;;;31.50;30.20;;;;;;5041987;28;19924;-64
2022/07/20 06:29:48;;;;;;;;;;;31.60;29.40;;;;;;5035639;28;19971;-65
2022/07/20 06:32:14;;;;;;;;;;;31.60;29.80;;;;;;5044653;28;19917;-63
2022/07/20 06:34:39;;;;;;;;;;;31.70;29.50;;;;;;5045804;28;19921;-65
2022/07/20 06:37:05;;;;;;;;;;;31.70;29.20;;;;;;5048970;28;19908;-66
2022/07/20 06:39:30;;;;;;;;;;;31.80;29.20;;;;;;5037674;28;19913;-67
2022/07/20 06:41:56;;;;;;;;;;;32.00;29.00;;;;;;5037239;28;20008;-71
2022/07/20 06:44:21;;;;;;;;;;;31.80;29.00;;;;;;5032578;28;19925;-67
2022/07/20 06:46:47;;;;;;;;;;;32.00;28.60;;;;;;5032694;28;20316;-69
2022/07/20 06:49:14;;;;;;;;;;;32.10;28.70;;;;;;5032622;28;20268;-67
2022/07/20 06:51:40;;;;;;;;;;;32.30;28.40;;;;;;5032919;28;19928;-64
2022/07/20 06:54:05;;;;;;;;;;;32.30;28.20;;;;;;5031815;28;19921;-66
2022/07/20 06:56:31;;;;;;;;;;;32.30;28.30;;;;;;5032553;28;20226;-67
2022/07/20 06:58:56;;;;;;;;;;;32.30;27.90;;;;;;5032010;28;20277;-68
2022/07/20 07:01:22;;;;;;;;;;;32.50;28.20;;;;;;5032476;28;20295;-68
2022/07/20 07:03:47;;;;;;;;;;;32.60;27.80;;;;;;5031948;28;19909;-69
2022/07/20 07:06:13;;;;;;;;;;;32.60;27.70;;;;;;5032385;28;19920;-66
2022/07/20 07:08:38;;;;;;;;;;;32.30;27.20;;;;;;5032355;28;19909;-70
2022/07/20 07:11:04;;;;;;;;;;;32.10;27.40;;;;;;5032278;28;19909;-68
2022/07/20 07:13:30;;;;;;;;;;;32.10;27.50;;;;;;5032311;28;20104;-64
2022/07/20 07:15:55;;;;;;;;;;;32.10;27.60;;;;;;5032086;28;19909;-68
2022/07/20 07:18:21;;;;;;;;;;;32.20;27.50;;;;;;5032220;28;20294;-66
2022/07/20 07:20:46;;;;;;;;;;;32.40;27.50;;;;;;5032287;28;20369;-71
2022/07/20 07:23:12;;;;;;;;;;;32.40;27.30;;;;;;5032151;28;19909;-62
2022/07/20 07:25:37;;;;;;;;;;;32.40;27.10;;;;;;5032318;28;19909;-68
2022/07/20 07:28:03;;;;;;;;;;;32.60;27.20;;;;;;5032246;28;19920;-70
2022/07/20 07:30:28;;;;;;;;;;;32.70;27.00;;;;;;5032274;28;19910;-64
2022/07/20 07:32:54;;;;;;;;;;;32.60;26.80;;;;;;5031912;28;20319;-67
2022/07/20 07:35:20;;;;;;;;;;;32.60;27.20;;;;;;5031972;28;19940;-68
2022/07/20 07:37:45;;;;;;;;;;;32.60;27.20;;;;;;5031982;28;19909;-69
2022/07/20 07:40:11;;;;;;;;;;;32.70;26.90;;;;;;5031985;28;20440;-69
2022/07/20 07:42:37;;;;;;;;;;;32.90;26.90;;;;;;5031837;28;20365;-69
2022/07/20 07:45:06;;;;;;;;;;;33.00;26.40;;;;;;5031928;28;19913;-69
2022/07/20 07:47:32;;;;;;;;;;;33.10;25.90;;;;;;5031911;28;20008;-72
2022/07/20 07:49:57;;;;;;;;;;;33.10;26.10;;;;;;5032048;28;20004;-64
2022/07/20 07:52:23;;;;;;;;;;;33.10;26.20;;;;;;5031791;28;19979;-62
2022/07/20 07:54:48;;;;;;;;;;;32.90;26.60;;;;;;5031820;28;19924;-63
2022/07/20 07:57:14;;;;;;;;;;;32.90;26.40;;;;;;5031776;28;19920;-64
2022/07/20 07:59:40;;;;;;;;;;;33.00;26.70;;;;;;5031790;28;19920;-64
2022/07/20 08:02:05;;;;;;;;;;;33.20;26.60;;;;;;5031597;28;19909;-63
2022/07/20 08:04:31;;;;;;;;;;;33.10;25.50;;;;;;5031553;28;20080;-63
2022/07/20 08:06:56;;;;;;;;;;;33.10;25.00;;;;;;5031904;28;19913;-65
2022/07/20 08:09:22;;;;;;;;;;;33.20;24.90;;;;;;5031790;28;19909;-63
2022/07/20 08:11:48;;;;;;;;;;;33.30;24.90;;;;;;5031607;28;19909;-62
2022/07/20 08:14:13;;;;;;;;;;;33.30;25.00;;;;;;5031515;28;19928;-62
2022/07/20 08:16:39;;;;;;;;;;;33.50;25.00;;;;;;5034560;28;20095;-62
2022/07/20 08:19:04;;;;;;;;;;;33.60;24.80;;;;;;5035442;28;19909;-62
2022/07/20 08:21:30;;;;;;;;;;;33.60;25.10;;;;;;5035682;28;19913;-62
2022/07/20 08:23:55;;;;;;;;;;;33.60;24.90;;;;;;5035450;28;19941;-67
2022/07/20 08:26:21;;;;;;;;;;;33.60;25.10;;;;;;5035442;28;20346;-68
2022/07/20 08:28:47;;;;;;;;;;;33.60;24.80;;;;;;5035407;28;19920;-70
2022/07/20 08:31:12;;;;;;;;;;;33.70;25.00;;;;;;5035164;28;20319;-63
2022/07/20 08:33:38;;;;;;;;;;;33.70;24.40;;;;;;5035189;28;19927;-63
2022/07/20 08:36:04;;;;;;;;;;;33.70;24.20;;;;;;5035218;28;19913;-65
2022/07/20 08:38:29;;;;;;;;;;;33.50;24.60;;;;;;5035033;28;19909;-62
2022/07/20 08:40:55;;;;;;;;;;;33.50;24.70;;;;;;5035124;28;19913;-64
2022/07/20 08:43:21;;;;;;;;;;;33.50;24.30;;;;;;5034772;28;19924;-65
2022/07/20 08:45:48;;;;;;;;;;;33.50;24.20;;;;;;5035022;28;20363;-63
2022/07/20 08:48:17;;;;;;;;;;;33.60;24.50;;;;;;5034930;28;19913;-63
2022/07/20 08:50:43;;;;;;;;;;;33.70;24.00;;;;;;5034774;28;20404;-64
2022/07/20 08:53:09;;;;;;;;;;;33.70;23.60;;;;;;5034889;28;20036;-65
2022/07/20 08:55:34;;;;;;;;;;;33.70;23.50;;;;;;5034584;28;19909;-62
2022/07/20 08:58:00;;;;;;;;;;;33.80;23.50;;;;;;5034858;28;19913;-61
2022/07/20 09:00:26;;;;;;;;;;;33.70;23.50;;;;;;5034865;28;19912;-66
2022/07/20 09:02:56;;;;;;;;;;;33.80;23.70;;;;;;5033449;28;20428;-65
2022/07/20 09:05:23;;;;;;;;;;;33.80;24.20;;;;;;5034492;28;20292;-63
2022/07/20 09:07:52;;;;;;;;;;;33.80;24.10;;;;;;5034612;28;19913;-61
2022/07/20 09:10:19;;;;;;;;;;;33.80;24.40;;;;;;5035137;28;19913;-66
2022/07/20 09:12:52;;;;;;;;;;;33.90;24.30;;;;;;5034328;28;19909;-64
2022/07/20 09:15:24;;;;;;;;;;;33.80;23.90;;;;;;5034454;28;20315;-68
2022/07/20 09:18:00;;;;;;;;;;;33.80;24.10;;;;;;5033781;28;19917;-68
2022/07/20 09:20:29;;;;;;;;;;;33.60;23.90;;;;;;5033539;28;19913;-69
2022/07/20 09:22:59;;;;;;;;;;;33.60;23.60;;;;;;5033384;28;19913;-69
2022/07/20 09:25:25;;;;;;;;;;;33.60;23.70;;;;;;5033395;28;19963;-68
2022/07/20 09:27:50;;;;;;;;;;;33.60;23.70;;;;;;5033275;28;19957;-72
2022/07/20 09:30:17;;;;;;;;;;;33.60;23.90;;;;;;5033183;28;19913;-65
2022/07/20 09:32:51;;;;;;;;;;;33.70;24.20;;;;;;5033324;28;20423;-64
2022/07/20 09:35:18;;;;;;;;;;;33.70;24.40;;;;;;5033708;28;19913;-65
2022/07/20 09:37:44;;;;;;;;;;;33.70;24.50;;;;;;5033605;28;19913;-64
2022/07/20 09:40:10;;;;;;;;;;;33.80;24.00;;;;;;5033470;28;19920;-62
2022/07/20 09:42:36;;;;;;;;;;;33.80;24.20;;;;;;5033579;28;20379;-62
2022/07/20 09:45:22;;;;;;;;;;;33.70;24.20;;;;;;5032818;28;19920;-67
2022/07/20 09:48:04;;;;;;;;;;;33.70;25.10;;;;;;5032769;28;19914;-61
2022/07/20 09:50:31;;;;;;;;;;;33.80;26.50;;;;;;5032887;28;19909;-59
2022/07/20 09:52:57;;;;;;;;;;;33.60;27.20;;;;;;5032763;28;19936;-60
2022/07/20 09:55:22;;;;;;;;;;;33.70;27.30;;;;;;5032719;28;19913;-61
2022/07/20 09:57:51;;;;;;;;;;;33.80;26.50;;;;;;5032699;28;20000;-60
2022/07/20 10:00:20;;;;;;;;;;;33.80;26.10;;;;;;5032985;28;19916;-60
2022/07/20 10:02:46;;;;;;;;;;;33.80;24.70;;;;;;5033375;28;19944;-61
2022/07/20 10:05:12;;;;;;;;;;;33.50;24.50;;;;;;5033430;28;19951;-60
2022/07/20 10:07:38;;;;;;;;;;;33.40;24.60;;;;;;5033360;28;19960;-61
2022/07/20 10:10:03;;;;;;;;;;;33.20;24.80;;;;;;5033526;28;20321;-62
2022/07/20 10:12:29;;;;;;;;;;;33.40;25.10;;;;;;5033629;28;19913;-67
2022/07/20 10:14:56;;;;;;;;;;;33.50;24.60;;;;;;5033160;28;19960;-62
2022/07/20 10:17:21;;;;;;;;;;;33.70;24.80;;;;;;5033300;28;19913;-66
2022/07/20 10:19:47;;;;;;;;;;;33.80;24.20;;;;;;5033579;28;19955;-66
2022/07/20 10:22:13;;;;;;;;;;;33.70;24.90;;;;;;5033217;28;19999;-59
2022/07/20 10:24:39;;;;;;;;;;;33.80;24.10;;;;;;5033119;28;20016;-64
2022/07/20 10:27:07;;;;;;;;;;;33.80;23.90;;;;;;5032985;28;20039;-65
2022/07/20 10:29:37;;;;;;;;;;;33.70;23.70;;;;;;5033285;28;19909;-60
2022/07/20 10:32:08;;;;;;;;;;;33.70;24.20;;;;;;5033126;28;20364;-61
2022/07/20 10:34:38;;;;;;;;;;;33.80;24.40;;;;;;5032957;28;19959;-62
2022/07/20 10:37:25;;;;;;;;;;;34.00;24.80;;;;;;5030688;28;19913;-60
2022/07/20 10:39:51;;;;;;;;;;;34.10;24.80;;;;;;5031357;28;19913;-62
2022/07/20 10:42:19;;;;;;;;;;;34.10;24.50;;;;;;5031973;28;19958;-64
2022/07/20 10:44:45;;;;;;;;;;;34.00;24.20;;;;;;5031508;28;19951;-62
2022/07/20 10:47:29;;;;;;;;;;;33.80;24.60;;;;;;5031854;28;20353;-61
2022/07/20 10:49:59;;;;;;;;;;;33.80;25.10;;;;;;5031549;28;19920;-61
2022/07/20 10:52:25;;;;;;;;;;;33.60;25.40;;;;;;5032264;28;19909;-62
2022/07/20 10:54:51;;;;;;;;;;;33.60;25.60;;;;;;5031095;28;19917;-59
2022/07/20 10:57:17;;;;;;;;;;;33.50;25.10;;;;;;5031759;28;20000;-62
2022/07/20 10:59:42;;;;;;;;;;;33.40;25.40;;;;;;5031623;28;19913;-62
2022/07/20 11:02:08;;;;;;;;;;;33.30;26.00;;;;;;5031559;28;19928;-61
2022/07/20 11:04:41;;;;;;;;;;;33.40;26.70;;;;;;5031823;28;19909;-61
2022/07/20 11:07:06;;;;;;;;;;;33.40;26.90;;;;;;5031584;28;19928;-60
2022/07/20 11:09:32;;;;;;;;;;;33.20;27.80;;;;;;5031591;28;19917;-60
2022/07/20 11:11:57;;;;;;;;;;;33.20;28.10;;;;;;5030910;28;19913;-63
2022/07/20 11:14:23;;;;;;;;;;;32.90;28.50;;;;;;5031629;28;19920;-64
2022/07/20 11:16:53;;;;;;;;;;;32.90;28.30;;;;;;5031471;28;19963;-61
2022/07/20 11:19:20;;;;;;;;;;;32.80;26.90;;;;;;5045060;28;19936;-62
2022/07/20 11:21:45;;;;;;;;;;;32.60;27.80;;;;;;5043887;28;19920;-63
2022/07/20 11:24:21;;;;;;;;;;;32.70;27.90;;;;;;5032305;28;19909;-64
2022/07/20 11:26:46;;;;;;;;;;;32.70;27.50;;;;;;5031612;28;20266;-63
2022/07/20 11:29:14;;;;;;;;;;;32.80;27.40;;;;;;5033114;28;19928;-63
2022/07/20 11:31:39;;;;;;;;;;;32.70;26.80;;;;;;5030821;28;19921;-62
2022/07/20 11:34:05;;;;;;;;;;;32.50;27.40;;;;;;5030596;28;19921;-61
2022/07/20 11:36:31;;;;;;;;;;;32.40;26.00;;;;;;5030901;28;19992;-66
2022/07/20 11:39:02;;;;;;;;;;;32.60;27.00;;;;;;5030415;28;19941;-63
2022/07/20 11:41:27;;;;;;;;;;;32.80;26.20;;;;;;5030882;28;19913;-60
2022/07/20 11:43:53;;;;;;;;;;;32.90;26.70;;;;;;5030340;28;19925;-60
2022/07/20 11:46:23;;;;;;;;;;;33.00;26.70;;;;;;5031169;28;19909;-61
2022/07/20 11:48:56;;;;;;;;;;;33.10;26.50;;;;;;5031066;28;20008;-61
2022/07/20 11:51:22;;;;;;;;;;;32.90;26.60;;;;;;5035024;28;19909;-62
2022/07/20 11:53:47;;;;;;;;;;;32.90;26.30;;;;;;5034419;28;19951;-62
2022/07/20 11:56:17;;;;;;;;;;;32.80;27.30;;;;;;5034672;28;19932;-61
2022/07/20 11:58:43;;;;;;;;;;;32.60;26.50;;;;;;5034675;28;19913;-62
2022/07/20 12:01:11;;;;;;;;;;;32.40;27.00;;;;;;5034266;28;20377;-64
2022/07/20 12:03:40;;;;;;;;;;;32.30;27.50;;;;;;5034236;28;19909;-62
2022/07/20 12:06:08;;;;;;;;;;;32.40;28.10;;;;;;5034651;28;20329;-64
2022/07/20 12:08:34;;;;;;;;;;;32.40;28.50;;;;;;5034546;28;19917;-60
2022/07/20 12:11:00;;;;;;;;;;;32.30;27.70;;;;;;5034844;28;19978;-63
2022/07/20 12:13:27;;;;;;;;;;;32.10;27.60;;;;;;5034855;28;19943;-65
2022/07/20 12:15:57;;;;;;;;;;;32.10;27.70;;;;;;5034466;28;19924;-62
2022/07/20 12:18:37;;;;;;;;;;;32.00;28.00;;;;;;5034669;28;19909;-61
2022/07/20 12:21:04;;;;;;;;;;;32.00;28.20;;;;;;5034399;28;19913;-64
2022/07/20 12:23:31;;;;;;;;;;;32.10;27.90;;;;;;5034197;28;19948;-65
2022/07/20 12:25:56;;;;;;;;;;;32.30;28.50;;;;;;5036765;28;19913;-62
2022/07/20 12:28:48;;;;;;;;;;;32.50;27.10;;;;;;5034206;28;20016;-63
2022/07/20 12:31:15;;;;;;;;;;;32.10;28.10;;;;;;5029986;28;19913;-64
2022/07/20 12:34:01;;;;;;;;;;;32.10;27.20;;;;;;5034065;28;19921;-65
2022/07/20 12:36:32;;;;;;;;;;;32.20;27.60;;;;;;5027338;28;19909;-63
2022/07/20 12:38:58;;;;;;;;;;;32.40;26.80;;;;;;5033563;28;19956;-63
2022/07/20 12:41:23;;;;;;;;;;;32.30;27.00;;;;;;5034320;28;20444;-63
2022/07/20 12:43:49;;;;;;;;;;;32.00;27.30;;;;;;5033461;28;20347;-63
2022/07/20 12:46:15;;;;;;;;;;;31.90;26.90;;;;;;5033721;28;19917;-62
2022/07/20 12:48:44;;;;;;;;;;;32.00;27.80;;;;;;5030823;28;19948;-65
2022/07/20 12:51:10;;;;;;;;;;;31.90;27.80;;;;;;5033926;28;20042;-63
2022/07/20 12:53:37;;;;;;;;;;;32.00;27.90;;;;;;5034190;28;19917;-64
2022/07/20 12:56:04;;;;;;;;;;;31.90;27.30;;;;;;5034855;28;19913;-63
2022/07/20 12:58:29;;;;;;;;;;;31.70;28.60;;;;;;5034925;28;19908;-64
2022/07/20 13:00:55;;;;;;;;;;;31.60;28.70;;;;;;5034025;28;19916;-63
2022/07/20 13:03:20;;;;;;;;;;;31.50;28.60;;;;;;5034807;28;20369;-63
2022/07/20 13:05:46;;;;;;;;;;;31.60;28.60;;;;;;5034786;28;20629;-64
2022/07/20 13:08:12;;;;;;;;;;;31.90;29.30;;;;;;5034494;28;19913;-63
2022/07/20 13:10:37;;;;;;;;;;;32.00;28.90;;;;;;5034719;28;19913;-64
2022/07/20 13:13:03;;;;;;;;;;;32.00;29.00;;;;;;5034234;28;19913;-61
2022/07/20 13:15:29;;;;;;;;;;;32.00;30.00;;;;;;5034707;28;19956;-62
2022/07/20 13:17:54;;;;;;;;;;;32.20;30.10;;;;;;5034757;28;19913;-65
2022/07/20 13:20:20;;;;;;;;;;;31.70;29.40;;;;;;5033572;28;19992;-63
2022/07/20 13:22:45;;;;;;;;;;;31.50;30.00;;;;;;5032537;28;19920;-64
2022/07/20 13:25:11;;;;;;;;;;;31.60;31.50;;;;;;5034617;28;20373;-64
2022/07/20 13:27:37;;;;;;;;;;;31.90;31.20;;;;;;5034489;28;19996;-63
2022/07/20 13:30:03;;;;;;;;;;;32.00;31.50;;;;;;5034363;28;19915;-63
2022/07/20 13:32:29;;;;;;;;;;;32.20;30.10;;;;;;5034026;28;19920;-64
2022/07/20 13:34:54;;;;;;;;;;;32.40;30.00;;;;;;5033646;28;20284;-64
2022/07/20 13:37:20;;;;;;;;;;;32.30;30.00;;;;;;5034062;28;20008;-64
2022/07/20 13:39:45;;;;;;;;;;;32.00;29.20;;;;;;5034116;28;19909;-64
2022/07/20 13:42:11;;;;;;;;;;;31.70;28.70;;;;;;5034138;28;19971;-62
2022/07/20 13:44:38;;;;;;;;;;;31.80;29.80;;;;;;5033713;28;19921;-63
2022/07/20 13:47:04;;;;;;;;;;;31.90;28.90;;;;;;5033980;28;19909;-61
2022/07/20 13:49:29;;;;;;;;;;;31.90;29.10;;;;;;5034004;28;20003;-61
2022/07/20 13:51:55;;;;;;;;;;;32.10;30.30;;;;;;5033775;28;20401;-61
2022/07/20 13:54:21;;;;;;;;;;;31.50;32.10;;;;;;5033622;28;19929;-63
2022/07/20 13:56:46;;;;;;;;;;;31.40;32.00;;;;;;5033982;28;19916;-60
2022/07/20 13:59:12;;;;;;;;;;;31.80;33.00;;;;;;5033659;28;19913;-61
2022/07/20 14:01:43;;;;;;;;;;;31.40;29.20;;;;;;5033696;28;19913;-61
2022/07/20 14:04:10;;;;;;;;;;;31.50;31.10;;;;;;5033555;28;20408;-60
2022/07/20 14:06:36;;;;;;;;;;;31.70;30.80;;;;;;5033630;28;20000;-62
2022/07/20 14:09:01;;;;;;;;;;;31.70;30.20;;;;;;5033585;28;20005;-60
2022/07/20 14:11:27;;;;;;;;;;;32.00;29.90;;;;;;5033526;28;19920;-61
2022/07/20 14:13:52;;;;;;;;;;;32.30;29.60;;;;;;5032138;28;20388;-61